Victory — E5U2349 — position and weather

sailwx.info

Track history (hours):
 
Tides and Currents Weather Stations Pressure Air Temp Water Temp Dewpoint Dewpoint Depression Visibility Wind Speed Wind Dir Waves Ship Positions

Victory

Last reported at 2015-May-25 08:29 UTC. Time now 2015-May-25 09:30 UTC.
Position N 44°25' E 008°50'.

Length 51 m; draft 3 m.

Type: Pleasure craft. MMSI: 518399000.

Date/timePositionNaut miles runAvg speedWind from/ knotsBaromVisibWave heightAir tempDewpointWater temp
2015-May-25 08:29N 44°25' E 008°50'0 0.0
2015-May-25 07:29N 44°25' E 008°50'0 0.0
2015-May-25 06:29N 44°25' E 008°50'0 0.0
2015-May-25 05:29N 44°25' E 008°50'0 0.0
2015-May-25 04:26N 44°25' E 008°50'0 0.0
2015-May-25 03:32N 44°25' E 008°50'0 0.0
2015-May-25 02:26N 44°25' E 008°50'0 0.0
2015-May-25 01:20N 44°25' E 008°50'0 0.0
2015-May-25 00:32N 44°25' E 008°50'0 0.0
2015-May-24 23:32N 44°25' E 008°50'0 0.0
2015-May-24 22:23N 44°25' E 008°50'0 0.0
2015-May-24 21:32N 44°25' E 008°50'0 0.0
2015-May-24 20:32N 44°25' E 008°50'0 0.0
2015-May-24 19:32N 44°25' E 008°50'0 0.0
2015-May-24 18:26N 44°25' E 008°50'0 0.0
2015-May-24 17:32N 44°25' E 008°50'0 0.0
2015-May-24 16:32N 44°25' E 008°50'0 0.0
2015-May-24 15:32N 44°25' E 008°50'0 0.0
2015-May-24 14:32N 44°25' E 008°50'0 0.0
2015-May-24 13:26N 44°25' E 008°50'0 0.0
2015-May-24 12:32N 44°25' E 008°50'0 0.0
2015-May-24 11:26N 44°25' E 008°50'0 0.0
2015-May-24 10:32N 44°25' E 008°50'0 0.0
2015-May-24 09:32N 44°25' E 008°50'0 0.0
2015-May-24 08:32N 44°25' E 008°50'0 0.0
2015-May-24 07:32N 44°25' E 008°50'0 0.0
2015-May-24 06:26N 44°25' E 008°50'0 0.0
2015-May-24 05:32N 44°25' E 008°50'0 0.0
2015-May-24 04:32N 44°25' E 008°50'0 0.0
2015-May-24 03:29N 44°25' E 008°50'0 0.0
2015-May-24 02:29N 44°25' E 008°50'0 0.0
2015-May-24 01:29N 44°25' E 008°50'0 0.0
2015-May-24 00:29N 44°25' E 008°50'0 0.0
2015-May-23 23:32N 44°25' E 008°50'0 0.0
2015-May-23 22:32N 44°25' E 008°50'0 0.0
2015-May-23 21:32N 44°25' E 008°50'0 0.0
2015-May-23 20:31N 44°25' E 008°50'8 8.6
2015-May-23 19:34N 44°19' E 008°59'10 2.5
2015-May-23 15:26N 44°19' E 009°13'3 3.2
2015-May-23 14:30N 44°19' E 009°09'2 1.6
2015-May-23 13:25N 44°21' E 009°09'4 4.1
2015-May-23 12:32N 44°19' E 009°13'1 0.0
2015-May-22 15:33N 44°18' E 009°13'1413.6
2015-May-22 14:33N 44°24' E 008°56'1 0.9
2015-May-22 13:29N 44°25' E 008°55'0 0.0
2015-May-22 12:23N 44°25' E 008°55'0 0.0
2015-May-22 11:29N 44°25' E 008°55'0 0.0
2015-May-22 10:29N 44°25' E 008°55'0 0.0
2015-May-22 09:29N 44°25' E 008°55'0 0.0
2015-May-22 08:17N 44°25' E 008°55'0 0.0
2015-May-22 07:29N 44°25' E 008°55'0 0.0
2015-May-22 06:29N 44°25' E 008°55'0 0.0
2015-May-22 05:29N 44°25' E 008°55'0 0.0
2015-May-22 04:29N 44°25' E 008°55'0 0.0
2015-May-22 03:29N 44°25' E 008°55'0 0.0
2015-May-22 02:11N 44°25' E 008°55'0 0.0
2015-May-22 01:29N 44°25' E 008°55'0 0.0
2015-May-22 00:29N 44°25' E 008°55'0 0.0
2015-May-21 23:11N 44°25' E 008°55'0 0.0
2015-May-21 22:29N 44°25' E 008°55'0 0.0
2015-May-21 21:23N 44°25' E 008°55'0 0.0
2015-May-21 20:23N 44°25' E 008°55'0 0.0
2015-May-21 19:33N 44°25' E 008°55'0 0.0
2015-May-21 18:33N 44°25' E 008°55'5 4.7
2015-May-21 17:33N 44°20' E 008°58'9210.1
2015-May-21 08:29N 43°35' E 007°08'0 0.0
2015-May-21 07:29N 43°35' E 007°08'0 0.0
2015-May-21 06:29N 43°35' E 007°08'0 0.0
2015-May-21 05:29N 43°35' E 007°08'0 0.0
2015-May-21 04:29N 43°35' E 007°08'0 0.0
2015-May-21 03:29N 43°35' E 007°08'0 0.0
2015-May-21 02:23N 43°35' E 007°08'0 0.1
2015-May-21 01:29N 43°35' E 007°08'0 0.0
2015-May-21 00:29N 43°35' E 007°08'0 0.0
2015-May-20 23:29N 43°35' E 007°08'0 0.0
2015-May-20 22:29N 43°35' E 007°08'0 0.0
2015-May-20 21:29N 43°35' E 007°08'0 0.0
2015-May-20 20:29N 43°35' E 007°08'0 0.0
2015-May-20 19:29N 43°35' E 007°08'0 0.0
2015-May-20 18:34N 43°35' E 007°08'4 4.2
2015-May-20 17:34N 43°39' E 007°10'0 0.2
2015-May-20 16:34N 43°39' E 007°10'9 7.7
2015-May-20 15:25N 43°32' E 007°03'0 0.0
2015-May-20 14:25N 43°32' E 007°03'0 0.0
2015-May-20 13:31N 43°32' E 007°03'0 0.0
2015-May-20 09:31N 43°32' E 007°03'0 0.0
2015-May-20 08:25N 43°32' E 007°03'0 0.0
2015-May-20 07:31N 43°32' E 007°03'0 0.0
2015-May-20 05:31N 43°32' E 007°03'0 0.0
2015-May-20 04:31N 43°32' E 007°03'0 0.0
2015-May-20 03:25N 43°32' E 007°03'0 0.0
2015-May-20 02:25N 43°32' E 007°03'0 0.0
2015-May-20 01:31N 43°32' E 007°03'0 0.0
2015-May-20 00:31N 43°32' E 007°03'0 0.0
2015-May-19 23:31N 43°32' E 007°03'0 0.0
2015-May-19 21:13N 43°32' E 007°03'0 0.0
2015-May-19 20:07N 43°32' E 007°03'0 0.0
2015-May-19 19:13N 43°32' E 007°03'0 0.0
2015-May-19 18:33N 43°32' E 007°03'1 0.0
2015-May-18 20:32N 43°31' E 007°02'0 0.0
2015-May-18 19:28N 43°31' E 007°02'0 0.0
2015-May-18 18:14N 43°31' E 007°02'2 2.3
2015-May-18 17:25N 43°33' E 007°02'0 0.0
2015-May-18 16:05N 43°33' E 007°02'3 2.2
2015-May-18 14:33N 43°30' E 007°05'1515.0
2015-May-18 13:32N 43°41' E 007°21'1 0.3
2015-May-18 08:30N 43°42' E 007°20'0 0.0
2015-May-18 04:06N 43°42' E 007°20'0 0.0
2015-May-18 00:30N 43°42' E 007°20'0 0.0
2015-May-17 16:12N 43°42' E 007°20'0 0.0
2015-May-17 14:12N 43°42' E 007°20'0 0.0
2015-May-17 13:24N 43°42' E 007°20'0 0.0
2015-May-17 12:28N 43°42' E 007°20'0 0.0
2015-May-17 11:32N 43°42' E 007°20'0 0.0
2015-May-17 10:25N 43°42' E 007°20'  
Track history (hours):
 
Tides and Currents Weather Stations Pressure Air Temp Water Temp Dewpoint Dewpoint Depression Visibility Wind Speed Wind Dir Waves Ship Positions

Victory

Last reported at 2015-May-25 08:29 UTC. Time now 2015-May-25 09:30 UTC.
Position N 44°25' E 008°50'.

Length 51 m; draft 3 m.

Type: Pleasure craft. MMSI: 518399000.

Date/timePositionNaut miles runAvg speedWind from/ knotsBaromVisibWave heightAir tempDewpointWater temp
2015-May-25 08:29N 44°25' E 008°50'0 0.0
2015-May-25 07:29N 44°25' E 008°50'0 0.0
2015-May-25 06:29N 44°25' E 008°50'0 0.0
2015-May-25 05:29N 44°25' E 008°50'0 0.0
2015-May-25 04:26N 44°25' E 008°50'0 0.0
2015-May-25 03:32N 44°25' E 008°50'0 0.0
2015-May-25 02:26N 44°25' E 008°50'0 0.0
2015-May-25 01:20N 44°25' E 008°50'0 0.0
2015-May-25 00:32N 44°25' E 008°50'0 0.0
2015-May-24 23:32N 44°25' E 008°50'0 0.0
2015-May-24 22:23N 44°25' E 008°50'0 0.0
2015-May-24 21:32N 44°25' E 008°50'0 0.0
2015-May-24 20:32N 44°25' E 008°50'0 0.0
2015-May-24 19:32N 44°25' E 008°50'0 0.0
2015-May-24 18:26N 44°25' E 008°50'0 0.0
2015-May-24 17:32N 44°25' E 008°50'0 0.0
2015-May-24 16:32N 44°25' E 008°50'0 0.0
2015-May-24 15:32N 44°25' E 008°50'0 0.0
2015-May-24 14:32N 44°25' E 008°50'0 0.0
2015-May-24 13:26N 44°25' E 008°50'0 0.0
2015-May-24 12:32N 44°25' E 008°50'0 0.0
2015-May-24 11:26N 44°25' E 008°50'0 0.0
2015-May-24 10:32N 44°25' E 008°50'0 0.0
2015-May-24 09:32N 44°25' E 008°50'0 0.0
2015-May-24 08:32N 44°25' E 008°50'0 0.0
2015-May-24 07:32N 44°25' E 008°50'0 0.0
2015-May-24 06:26N 44°25' E 008°50'0 0.0
2015-May-24 05:32N 44°25' E 008°50'0 0.0
2015-May-24 04:32N 44°25' E 008°50'0 0.0
2015-May-24 03:29N 44°25' E 008°50'0 0.0
2015-May-24 02:29N 44°25' E 008°50'0 0.0
2015-May-24 01:29N 44°25' E 008°50'0 0.0
2015-May-24 00:29N 44°25' E 008°50'0 0.0
2015-May-23 23:32N 44°25' E 008°50'0 0.0
2015-May-23 22:32N 44°25' E 008°50'0 0.0
2015-May-23 21:32N 44°25' E 008°50'0 0.0
2015-May-23 20:31N 44°25' E 008°50'8 8.6
2015-May-23 19:34N 44°19' E 008°59'10 2.5
2015-May-23 15:26N 44°19' E 009°13'3 3.2
2015-May-23 14:30N 44°19' E 009°09'2 1.6
2015-May-23 13:25N 44°21' E 009°09'4 4.1
2015-May-23 12:32N 44°19' E 009°13'1 0.0
2015-May-22 15:33N 44°18' E 009°13'1413.6
2015-May-22 14:33N 44°24' E 008°56'1 0.9
2015-May-22 13:29N 44°25' E 008°55'0 0.0
2015-May-22 12:23N 44°25' E 008°55'0 0.0
2015-May-22 11:29N 44°25' E 008°55'0 0.0
2015-May-22 10:29N 44°25' E 008°55'0 0.0
2015-May-22 09:29N 44°25' E 008°55'0 0.0
2015-May-22 08:17N 44°25' E 008°55'0 0.0
2015-May-22 07:29N 44°25' E 008°55'0 0.0
2015-May-22 06:29N 44°25' E 008°55'0 0.0
2015-May-22 05:29N 44°25' E 008°55'0 0.0
2015-May-22 04:29N 44°25' E 008°55'0 0.0
2015-May-22 03:29N 44°25' E 008°55'0 0.0
2015-May-22 02:11N 44°25' E 008°55'0 0.0
2015-May-22 01:29N 44°25' E 008°55'0 0.0
2015-May-22 00:29N 44°25' E 008°55'0 0.0
2015-May-21 23:11N 44°25' E 008°55'0 0.0
2015-May-21 22:29N 44°25' E 008°55'0 0.0
2015-May-21 21:23N 44°25' E 008°55'0 0.0
2015-May-21 20:23N 44°25' E 008°55'0 0.0
2015-May-21 19:33N 44°25' E 008°55'0 0.0
2015-May-21 18:33N 44°25' E 008°55'5 4.7
2015-May-21 17:33N 44°20' E 008°58'9210.1
2015-May-21 08:29N 43°35' E 007°08'0 0.0
2015-May-21 07:29N 43°35' E 007°08'0 0.0
2015-May-21 06:29N 43°35' E 007°08'0 0.0
2015-May-21 05:29N 43°35' E 007°08'0 0.0
2015-May-21 04:29N 43°35' E 007°08'0 0.0
2015-May-21 03:29N 43°35' E 007°08'0 0.0
2015-May-21 02:23N 43°35' E 007°08'0 0.1
2015-May-21 01:29N 43°35' E 007°08'0 0.0
2015-May-21 00:29N 43°35' E 007°08'0 0.0
2015-May-20 23:29N 43°35' E 007°08'0 0.0
2015-May-20 22:29N 43°35' E 007°08'0 0.0
2015-May-20 21:29N 43°35' E 007°08'0 0.0
2015-May-20 20:29N 43°35' E 007°08'0 0.0
2015-May-20 19:29N 43°35' E 007°08'0 0.0
2015-May-20 18:34N 43°35' E 007°08'4 4.2
2015-May-20 17:34N 43°39' E 007°10'0 0.2
2015-May-20 16:34N 43°39' E 007°10'9 7.7
2015-May-20 15:25N 43°32' E 007°03'0 0.0
2015-May-20 14:25N 43°32' E 007°03'0 0.0
2015-May-20 13:31N 43°32' E 007°03'0 0.0
2015-May-20 09:31N 43°32' E 007°03'0 0.0
2015-May-20 08:25N 43°32' E 007°03'0 0.0
2015-May-20 07:31N 43°32' E 007°03'0 0.0
2015-May-20 05:31N 43°32' E 007°03'0 0.0
2015-May-20 04:31N 43°32' E 007°03'0 0.0
2015-May-20 03:25N 43°32' E 007°03'0 0.0
2015-May-20 02:25N 43°32' E 007°03'0 0.0
2015-May-20 01:31N 43°32' E 007°03'0 0.0
2015-May-20 00:31N 43°32' E 007°03'0 0.0
2015-May-19 23:31N 43°32' E 007°03'0 0.0
2015-May-19 21:13N 43°32' E 007°03'0 0.0
2015-May-19 20:07N 43°32' E 007°03'0 0.0
2015-May-19 19:13N 43°32' E 007°03'0 0.0
2015-May-19 18:33N 43°32' E 007°03'1 0.0
2015-May-18 20:32N 43°31' E 007°02'0 0.0
2015-May-18 19:28N 43°31' E 007°02'0 0.0
2015-May-18 18:14N 43°31' E 007°02'2 2.3
2015-May-18 17:25N 43°33' E 007°02'0 0.0
2015-May-18 16:05N 43°33' E 007°02'3 2.2
2015-May-18 14:33N 43°30' E 007°05'1515.0
2015-May-18 13:32N 43°41' E 007°21'1 0.3
2015-May-18 08:30N 43°42' E 007°20'0 0.0
2015-May-18 04:06N 43°42' E 007°20'0 0.0
2015-May-18 00:30N 43°42' E 007°20'0 0.0
2015-May-17 16:12N 43°42' E 007°20'0 0.0
2015-May-17 14:12N 43°42' E 007°20'0 0.0
2015-May-17 13:24N 43°42' E 007°20'0 0.0
2015-May-17 12:28N 43°42' E 007°20'0 0.0
2015-May-17 11:32N 43°42' E 007°20'0 0.0
2015-May-17 10:25N 43°42' E 007°20'  

Dump ship's entire track history